sensor_id;sensor_type;location;lat;lon;timestamp;P1;durP1;ratioP1;P2;durP2;ratioP2
14472;SDS011;7322;50.872;4.386;2022-10-16T00:01:23;2.50;;;1.03;;
14472;SDS011;7322;50.872;4.386;2022-10-16T00:03:53;4.00;;;1.20;;
14472;SDS011;7322;50.872;4.386;2022-10-16T00:06:20;2.50;;;1.07;;
14472;SDS011;7322;50.872;4.386;2022-10-16T00:08:48;1.87;;;1.13;;
14472;SDS011;7322;50.872;4.386;2022-10-16T00:11:19;2.47;;;1.30;;
14472;SDS011;7322;50.872;4.386;2022-10-16T00:13:50;2.53;;;1.00;;
14472;SDS011;7322;50.872;4.386;2022-10-16T00:16:20;2.60;;;1.07;;
14472;SDS011;7322;50.872;4.386;2022-10-16T00:18:47;2.03;;;1.03;;
14472;SDS011;7322;50.872;4.386;2022-10-16T00:21:16;2.20;;;1.13;;
14472;SDS011;7322;50.872;4.386;2022-10-16T00:23:45;3.30;;;1.30;;
14472;SDS011;7322;50.872;4.386;2022-10-16T00:26:13;2.73;;;1.30;;
14472;SDS011;7322;50.872;4.386;2022-10-16T00:28:45;3.37;;;1.10;;
14472;SDS011;7322;50.872;4.386;2022-10-16T00:31:13;1.93;;;1.17;;
14472;SDS011;7322;50.872;4.386;2022-10-16T00:33:41;2.30;;;1.10;;
14472;SDS011;7322;50.872;4.386;2022-10-16T00:36:10;1.37;;;0.97;;
14472;SDS011;7322;50.872;4.386;2022-10-16T00:38:41;1.50;;;1.00;;
14472;SDS011;7322;50.872;4.386;2022-10-16T00:41:10;1.67;;;1.10;;
14472;SDS011;7322;50.872;4.386;2022-10-16T00:43:40;2.07;;;1.20;;
14472;SDS011;7322;50.872;4.386;2022-10-16T00:46:10;2.50;;;1.40;;
14472;SDS011;7322;50.872;4.386;2022-10-16T00:48:41;1.23;;;1.00;;
14472;SDS011;7322;50.872;4.386;2022-10-16T00:51:11;1.63;;;1.10;;
14472;SDS011;7322;50.872;4.386;2022-10-16T00:53:39;1.50;;;1.07;;
14472;SDS011;7322;50.872;4.386;2022-10-16T00:56:09;2.10;;;1.13;;
14472;SDS011;7322;50.872;4.386;2022-10-16T00:58:38;1.77;;;1.13;;
14472;SDS011;7322;50.872;4.386;2022-10-16T01:01:05;2.37;;;1.10;;
14472;SDS011;7322;50.872;4.386;2022-10-16T01:03:46;1.97;;;1.27;;
14472;SDS011;7322;50.872;4.386;2022-10-16T01:06:28;1.57;;;1.00;;
14472;SDS011;7322;50.872;4.386;2022-10-16T01:09:09;3.07;;;1.37;;
14472;SDS011;7322;50.872;4.386;2022-10-16T01:11:44;3.43;;;1.20;;
14472;SDS011;7322;50.872;4.386;2022-10-16T01:14:19;4.47;;;1.50;;
14472;SDS011;7322;50.872;4.386;2022-10-16T01:16:55;3.13;;;1.13;;
14472;SDS011;7322;50.872;4.386;2022-10-16T01:19:32;1.70;;;1.13;;
14472;SDS011;7322;50.872;4.386;2022-10-16T01:22:10;2.37;;;1.40;;
14472;SDS011;7322;50.872;4.386;2022-10-16T01:24:38;2.17;;;1.30;;
14472;SDS011;7322;50.872;4.386;2022-10-16T01:27:12;3.27;;;1.50;;
14472;SDS011;7322;50.872;4.386;2022-10-16T01:29:45;2.00;;;1.30;;
14472;SDS011;7322;50.872;4.386;2022-10-16T01:32:18;2.67;;;1.30;;
14472;SDS011;7322;50.872;4.386;2022-10-16T01:34:58;2.83;;;1.40;;
14472;SDS011;7322;50.872;4.386;2022-10-16T01:37:31;4.17;;;1.47;;
14472;SDS011;7322;50.872;4.386;2022-10-16T01:40:02;2.33;;;1.30;;
14472;SDS011;7322;50.872;4.386;2022-10-16T01:42:37;1.67;;;1.13;;
14472;SDS011;7322;50.872;4.386;2022-10-16T01:45:08;3.23;;;1.60;;
14472;SDS011;7322;50.872;4.386;2022-10-16T01:47:38;3.67;;;1.43;;
14472;SDS011;7322;50.872;4.386;2022-10-16T01:50:06;1.87;;;1.40;;
14472;SDS011;7322;50.872;4.386;2022-10-16T01:52:35;4.00;;;1.37;;
14472;SDS011;7322;50.872;4.386;2022-10-16T01:55:05;2.07;;;1.30;;
14472;SDS011;7322;50.872;4.386;2022-10-16T01:57:37;3.30;;;1.50;;
14472;SDS011;7322;50.872;4.386;2022-10-16T02:00:08;2.67;;;1.30;;
14472;SDS011;7322;50.872;4.386;2022-10-16T02:02:39;1.73;;;1.30;;
14472;SDS011;7322;50.872;4.386;2022-10-16T02:05:11;3.47;;;1.40;;
14472;SDS011;7322;50.872;4.386;2022-10-16T02:07:42;3.87;;;1.40;;
14472;SDS011;7322;50.872;4.386;2022-10-16T02:10:10;2.53;;;1.40;;
14472;SDS011;7322;50.872;4.386;2022-10-16T02:12:39;2.80;;;1.50;;
14472;SDS011;7322;50.872;4.386;2022-10-16T02:15:16;3.37;;;1.50;;
14472;SDS011;7322;50.872;4.386;2022-10-16T02:17:43;3.20;;;1.40;;
14472;SDS011;7322;50.872;4.386;2022-10-16T02:20:11;2.83;;;1.50;;
14472;SDS011;7322;50.872;4.386;2022-10-16T02:22:39;2.00;;;1.30;;
14472;SDS011;7322;50.872;4.386;2022-10-16T02:25:10;4.20;;;1.50;;
14472;SDS011;7322;50.872;4.386;2022-10-16T02:27:46;3.67;;;1.30;;
14472;SDS011;7322;50.872;4.386;2022-10-16T02:30:21;2.67;;;1.50;;
14472;SDS011;7322;50.872;4.386;2022-10-16T02:32:54;2.57;;;1.30;;
14472;SDS011;7322;50.872;4.386;2022-10-16T02:35:23;1.67;;;1.20;;
14472;SDS011;7322;50.872;4.386;2022-10-16T02:37:52;1.97;;;1.20;;
14472;SDS011;7322;50.872;4.386;2022-10-16T02:40:20;2.57;;;1.67;;
14472;SDS011;7322;50.872;4.386;2022-10-16T02:42:50;3.17;;;1.50;;
14472;SDS011;7322;50.872;4.386;2022-10-16T02:45:18;2.33;;;1.30;;
14472;SDS011;7322;50.872;4.386;2022-10-16T02:47:46;2.47;;;1.50;;
14472;SDS011;7322;50.872;4.386;2022-10-16T02:50:13;3.63;;;1.50;;
14472;SDS011;7322;50.872;4.386;2022-10-16T02:52:40;3.80;;;1.60;;
14472;SDS011;7322;50.872;4.386;2022-10-16T02:55:08;3.27;;;1.50;;
14472;SDS011;7322;50.872;4.386;2022-10-16T02:57:35;3.57;;;1.53;;
14472;SDS011;7322;50.872;4.386;2022-10-16T03:00:04;3.77;;;1.77;;
14472;SDS011;7322;50.872;4.386;2022-10-16T03:02:31;3.30;;;1.50;;
14472;SDS011;7322;50.872;4.386;2022-10-16T03:04:58;3.70;;;1.67;;
14472;SDS011;7322;50.872;4.386;2022-10-16T03:07:26;2.90;;;1.53;;
14472;SDS011;7322;50.872;4.386;2022-10-16T03:09:53;4.83;;;1.97;;
14472;SDS011;7322;50.872;4.386;2022-10-16T03:12:20;3.17;;;1.80;;
14472;SDS011;7322;50.872;4.386;2022-10-16T03:14:47;2.20;;;1.60;;
14472;SDS011;7322;50.872;4.386;2022-10-16T03:17:15;2.20;;;1.53;;
14472;SDS011;7322;50.872;4.386;2022-10-16T03:19:42;3.70;;;1.80;;
14472;SDS011;7322;50.872;4.386;2022-10-16T03:22:10;3.20;;;1.40;;
14472;SDS011;7322;50.872;4.386;2022-10-16T03:24:37;3.67;;;1.60;;
14472;SDS011;7322;50.872;4.386;2022-10-16T03:27:04;4.43;;;1.97;;
14472;SDS011;7322;50.872;4.386;2022-10-16T03:29:32;2.13;;;1.53;;
14472;SDS011;7322;50.872;4.386;2022-10-16T03:31:59;3.80;;;1.70;;
14472;SDS011;7322;50.872;4.386;2022-10-16T03:34:28;4.73;;;2.10;;
14472;SDS011;7322;50.872;4.386;2022-10-16T03:36:55;5.27;;;1.80;;
14472;SDS011;7322;50.872;4.386;2022-10-16T03:39:22;5.33;;;1.90;;
14472;SDS011;7322;50.872;4.386;2022-10-16T03:41:50;2.43;;;1.90;;
14472;SDS011;7322;50.872;4.386;2022-10-16T03:44:16;4.27;;;1.50;;
14472;SDS011;7322;50.872;4.386;2022-10-16T03:46:43;7.13;;;1.70;;
14472;SDS011;7322;50.872;4.386;2022-10-16T03:49:11;2.60;;;1.70;;
14472;SDS011;7322;50.872;4.386;2022-10-16T03:51:39;5.60;;;1.87;;
14472;SDS011;7322;50.872;4.386;2022-10-16T03:54:06;2.97;;;1.73;;
14472;SDS011;7322;50.872;4.386;2022-10-16T03:56:33;4.70;;;1.67;;
14472;SDS011;7322;50.872;4.386;2022-10-16T03:59:01;2.73;;;1.40;;
14472;SDS011;7322;50.872;4.386;2022-10-16T04:01:28;4.10;;;1.50;;
14472;SDS011;7322;50.872;4.386;2022-10-16T04:03:57;4.83;;;1.80;;
14472;SDS011;7322;50.872;4.386;2022-10-16T04:06:24;4.70;;;1.70;;
14472;SDS011;7322;50.872;4.386;2022-10-16T04:08:54;4.23;;;1.70;;
14472;SDS011;7322;50.872;4.386;2022-10-16T04:11:21;3.77;;;1.90;;
14472;SDS011;7322;50.872;4.386;2022-10-16T04:13:48;3.07;;;1.50;;
14472;SDS011;7322;50.872;4.386;2022-10-16T04:16:16;5.13;;;1.70;;
14472;SDS011;7322;50.872;4.386;2022-10-16T04:18:44;7.27;;;1.67;;
14472;SDS011;7322;50.872;4.386;2022-10-16T04:21:11;3.97;;;1.83;;
14472;SDS011;7322;50.872;4.386;2022-10-16T04:23:38;4.03;;;1.70;;
14472;SDS011;7322;50.872;4.386;2022-10-16T04:26:09;4.33;;;1.53;;
14472;SDS011;7322;50.872;4.386;2022-10-16T04:28:38;2.37;;;1.33;;
14472;SDS011;7322;50.872;4.386;2022-10-16T04:31:05;4.00;;;1.60;;
14472;SDS011;7322;50.872;4.386;2022-10-16T04:33:32;3.80;;;1.73;;
14472;SDS011;7322;50.872;4.386;2022-10-16T04:36:00;5.00;;;1.70;;
14472;SDS011;7322;50.872;4.386;2022-10-16T04:40:58;4.37;;;1.50;;
14472;SDS011;7322;50.872;4.386;2022-10-16T04:43:27;4.27;;;1.63;;
14472;SDS011;7322;50.872;4.386;2022-10-16T04:45:54;3.87;;;1.80;;
14472;SDS011;7322;50.872;4.386;2022-10-16T04:48:21;4.00;;;1.60;;
14472;SDS011;7322;50.872;4.386;2022-10-16T04:50:49;3.70;;;1.53;;
14472;SDS011;7322;50.872;4.386;2022-10-16T04:53:17;4.03;;;1.80;;
14472;SDS011;7322;50.872;4.386;2022-10-16T04:55:46;2.70;;;1.67;;
14472;SDS011;7322;50.872;4.386;2022-10-16T04:58:13;5.27;;;1.80;;
14472;SDS011;7322;50.872;4.386;2022-10-16T05:00:42;4.17;;;1.90;;
14472;SDS011;7322;50.872;4.386;2022-10-16T05:03:11;4.60;;;2.03;;
14472;SDS011;7322;50.872;4.386;2022-10-16T05:05:41;3.43;;;1.87;;
14472;SDS011;7322;50.872;4.386;2022-10-16T05:08:15;4.10;;;1.53;;
14472;SDS011;7322;50.872;4.386;2022-10-16T05:10:42;5.07;;;2.00;;
14472;SDS011;7322;50.872;4.386;2022-10-16T05:13:10;3.27;;;1.67;;
14472;SDS011;7322;50.872;4.386;2022-10-16T05:15:37;3.83;;;1.80;;
14472;SDS011;7322;50.872;4.386;2022-10-16T05:18:06;2.97;;;2.00;;
14472;SDS011;7322;50.872;4.386;2022-10-16T05:20:34;4.40;;;2.20;;
14472;SDS011;7322;50.872;4.386;2022-10-16T05:23:01;4.67;;;1.90;;
14472;SDS011;7322;50.872;4.386;2022-10-16T05:25:28;6.07;;;2.00;;
14472;SDS011;7322;50.872;4.386;2022-10-16T05:27:55;4.27;;;1.70;;
14472;SDS011;7322;50.872;4.386;2022-10-16T05:30:22;6.57;;;2.10;;
14472;SDS011;7322;50.872;4.386;2022-10-16T05:32:50;4.77;;;2.37;;
14472;SDS011;7322;50.872;4.386;2022-10-16T05:35:18;4.30;;;2.03;;
14472;SDS011;7322;50.872;4.386;2022-10-16T05:37:47;6.60;;;2.10;;
14472;SDS011;7322;50.872;4.386;2022-10-16T05:40:15;5.67;;;2.63;;
14472;SDS011;7322;50.872;4.386;2022-10-16T05:42:42;2.83;;;2.03;;
14472;SDS011;7322;50.872;4.386;2022-10-16T05:45:10;3.77;;;2.17;;
14472;SDS011;7322;50.872;4.386;2022-10-16T05:47:38;4.80;;;2.17;;
14472;SDS011;7322;50.872;4.386;2022-10-16T05:50:05;5.07;;;2.50;;
14472;SDS011;7322;50.872;4.386;2022-10-16T05:52:35;4.07;;;2.20;;
14472;SDS011;7322;50.872;4.386;2022-10-16T05:55:02;3.97;;;2.03;;
14472;SDS011;7322;50.872;4.386;2022-10-16T05:57:29;4.37;;;2.40;;
14472;SDS011;7322;50.872;4.386;2022-10-16T05:59:57;4.33;;;2.30;;
14472;SDS011;7322;50.872;4.386;2022-10-16T06:02:24;4.83;;;2.77;;
14472;SDS011;7322;50.872;4.386;2022-10-16T06:04:57;5.17;;;2.30;;
14472;SDS011;7322;50.872;4.386;2022-10-16T06:07:25;5.70;;;2.37;;
14472;SDS011;7322;50.872;4.386;2022-10-16T06:09:54;5.33;;;1.93;;
14472;SDS011;7322;50.872;4.386;2022-10-16T06:12:21;5.33;;;2.20;;
14472;SDS011;7322;50.872;4.386;2022-10-16T06:14:48;6.80;;;2.40;;
14472;SDS011;7322;50.872;4.386;2022-10-16T06:17:17;5.50;;;2.13;;
14472;SDS011;7322;50.872;4.386;2022-10-16T06:19:44;3.57;;;2.20;;
14472;SDS011;7322;50.872;4.386;2022-10-16T06:22:11;6.27;;;2.10;;
14472;SDS011;7322;50.872;4.386;2022-10-16T06:24:39;5.17;;;2.17;;
14472;SDS011;7322;50.872;4.386;2022-10-16T06:27:07;4.83;;;2.20;;
14472;SDS011;7322;50.872;4.386;2022-10-16T06:29:35;7.57;;;2.23;;
14472;SDS011;7322;50.872;4.386;2022-10-16T06:32:02;5.43;;;2.20;;
14472;SDS011;7322;50.872;4.386;2022-10-16T06:34:30;6.43;;;2.53;;
14472;SDS011;7322;50.872;4.386;2022-10-16T06:36:57;3.07;;;2.00;;
14472;SDS011;7322;50.872;4.386;2022-10-16T06:39:24;3.57;;;1.93;;
14472;SDS011;7322;50.872;4.386;2022-10-16T06:41:52;3.83;;;2.07;;
14472;SDS011;7322;50.872;4.386;2022-10-16T06:44:20;5.87;;;2.40;;
14472;SDS011;7322;50.872;4.386;2022-10-16T06:46:49;4.63;;;2.10;;
14472;SDS011;7322;50.872;4.386;2022-10-16T06:49:18;5.60;;;2.50;;
14472;SDS011;7322;50.872;4.386;2022-10-16T06:51:48;3.93;;;2.13;;
14472;SDS011;7322;50.872;4.386;2022-10-16T06:54:17;5.87;;;2.30;;
14472;SDS011;7322;50.872;4.386;2022-10-16T06:56:44;5.33;;;2.70;;
14472;SDS011;7322;50.872;4.386;2022-10-16T06:59:12;4.70;;;2.17;;
14472;SDS011;7322;50.872;4.386;2022-10-16T07:01:41;6.00;;;2.43;;
14472;SDS011;7322;50.872;4.386;2022-10-16T07:04:08;2.83;;;2.07;;
14472;SDS011;7322;50.872;4.386;2022-10-16T07:06:35;5.73;;;2.30;;
14472;SDS011;7322;50.872;4.386;2022-10-16T07:09:04;4.63;;;2.33;;
14472;SDS011;7322;50.872;4.386;2022-10-16T07:11:39;4.77;;;2.20;;
14472;SDS011;7322;50.872;4.386;2022-10-16T07:14:09;3.83;;;2.10;;
14472;SDS011;7322;50.872;4.386;2022-10-16T07:16:43;6.33;;;2.10;;
14472;SDS011;7322;50.872;4.386;2022-10-16T07:19:10;3.93;;;2.33;;
14472;SDS011;7322;50.872;4.386;2022-10-16T07:21:40;6.60;;;2.13;;
14472;SDS011;7322;50.872;4.386;2022-10-16T07:24:11;5.23;;;2.13;;
14472;SDS011;7322;50.872;4.386;2022-10-16T07:26:39;4.93;;;2.20;;
14472;SDS011;7322;50.872;4.386;2022-10-16T07:29:07;5.67;;;2.70;;
14472;SDS011;7322;50.872;4.386;2022-10-16T07:31:39;6.60;;;3.57;;
14472;SDS011;7322;50.872;4.386;2022-10-16T07:34:08;4.43;;;2.50;;
14472;SDS011;7322;50.872;4.386;2022-10-16T07:36:37;3.57;;;2.30;;
14472;SDS011;7322;50.872;4.386;2022-10-16T07:39:05;4.70;;;2.50;;
14472;SDS011;7322;50.872;4.386;2022-10-16T07:41:32;5.57;;;2.47;;
14472;SDS011;7322;50.872;4.386;2022-10-16T07:44:02;4.27;;;2.50;;
14472;SDS011;7322;50.872;4.386;2022-10-16T07:46:29;5.23;;;2.57;;
14472;SDS011;7322;50.872;4.386;2022-10-16T07:48:59;3.23;;;2.33;;
14472;SDS011;7322;50.872;4.386;2022-10-16T07:51:27;9.30;;;2.87;;
14472;SDS011;7322;50.872;4.386;2022-10-16T07:53:55;5.40;;;2.73;;
14472;SDS011;7322;50.872;4.386;2022-10-16T07:56:22;6.50;;;3.07;;
14472;SDS011;7322;50.872;4.386;2022-10-16T07:58:49;3.83;;;2.40;;
14472;SDS011;7322;50.872;4.386;2022-10-16T08:01:17;3.60;;;2.33;;
14472;SDS011;7322;50.872;4.386;2022-10-16T08:03:45;4.93;;;2.20;;
14472;SDS011;7322;50.872;4.386;2022-10-16T08:06:14;5.03;;;2.33;;
14472;SDS011;7322;50.872;4.386;2022-10-16T08:08:42;4.87;;;2.53;;
14472;SDS011;7322;50.872;4.386;2022-10-16T08:11:09;5.43;;;2.37;;
14472;SDS011;7322;50.872;4.386;2022-10-16T08:13:36;5.87;;;2.47;;
14472;SDS011;7322;50.872;4.386;2022-10-16T08:16:03;5.43;;;2.60;;
14472;SDS011;7322;50.872;4.386;2022-10-16T08:18:33;5.30;;;2.40;;
14472;SDS011;7322;50.872;4.386;2022-10-16T08:21:00;3.27;;;2.20;;
14472;SDS011;7322;50.872;4.386;2022-10-16T08:23:29;4.20;;;2.30;;
14472;SDS011;7322;50.872;4.386;2022-10-16T08:26:02;3.97;;;2.20;;
14472;SDS011;7322;50.872;4.386;2022-10-16T08:28:30;4.27;;;2.00;;
14472;SDS011;7322;50.872;4.386;2022-10-16T08:31:04;7.90;;;3.07;;
14472;SDS011;7322;50.872;4.386;2022-10-16T08:33:32;5.63;;;2.27;;
14472;SDS011;7322;50.872;4.386;2022-10-16T08:36:01;5.27;;;2.40;;
14472;SDS011;7322;50.872;4.386;2022-10-16T08:38:29;4.43;;;2.27;;
14472;SDS011;7322;50.872;4.386;2022-10-16T08:41:00;4.03;;;2.00;;
14472;SDS011;7322;50.872;4.386;2022-10-16T08:43:43;5.20;;;2.20;;
14472;SDS011;7322;50.872;4.386;2022-10-16T08:46:30;3.87;;;1.97;;
14472;SDS011;7322;50.872;4.386;2022-10-16T08:49:07;4.17;;;2.17;;
14472;SDS011;7322;50.872;4.386;2022-10-16T08:51:39;8.30;;;2.40;;
14472;SDS011;7322;50.872;4.386;2022-10-16T08:54:11;5.23;;;2.10;;
14472;SDS011;7322;50.872;4.386;2022-10-16T08:56:50;7.53;;;2.43;;
14472;SDS011;7322;50.872;4.386;2022-10-16T08:59:17;6.63;;;2.13;;
14472;SDS011;7322;50.872;4.386;2022-10-16T09:01:47;4.40;;;1.90;;
14472;SDS011;7322;50.872;4.386;2022-10-16T09:07:15;8.30;;;2.40;;
14472;SDS011;7322;50.872;4.386;2022-10-16T09:09:52;6.67;;;1.90;;
14472;SDS011;7322;50.872;4.386;2022-10-16T09:12:28;5.57;;;2.07;;
14472;SDS011;7322;50.872;4.386;2022-10-16T09:15:03;4.27;;;1.73;;
14472;SDS011;7322;50.872;4.386;2022-10-16T09:17:42;8.30;;;2.53;;
14472;SDS011;7322;50.872;4.386;2022-10-16T09:20:18;6.57;;;2.63;;
14472;SDS011;7322;50.872;4.386;2022-10-16T09:22:52;7.20;;;2.33;;
14472;SDS011;7322;50.872;4.386;2022-10-16T09:25:26;6.97;;;1.97;;
14472;SDS011;7322;50.872;4.386;2022-10-16T09:30:39;5.83;;;1.80;;
14472;SDS011;7322;50.872;4.386;2022-10-16T09:33:06;7.17;;;2.10;;
14472;SDS011;7322;50.872;4.386;2022-10-16T09:35:36;5.07;;;2.00;;
14472;SDS011;7322;50.872;4.386;2022-10-16T09:38:06;5.40;;;2.03;;
14472;SDS011;7322;50.872;4.386;2022-10-16T09:40:35;5.73;;;2.03;;
14472;SDS011;7322;50.872;4.386;2022-10-16T09:43:11;2.73;;;1.50;;
14472;SDS011;7322;50.872;4.386;2022-10-16T09:45:59;6.27;;;1.93;;
14472;SDS011;7322;50.872;4.386;2022-10-16T09:48:30;4.67;;;1.80;;
14472;SDS011;7322;50.872;4.386;2022-10-16T09:51:01;7.03;;;1.90;;
14472;SDS011;7322;50.872;4.386;2022-10-16T09:53:40;6.90;;;2.23;;
14472;SDS011;7322;50.872;4.386;2022-10-16T09:56:09;4.30;;;1.70;;
14472;SDS011;7322;50.872;4.386;2022-10-16T09:58:43;3.10;;;1.40;;
14472;SDS011;7322;50.872;4.386;2022-10-16T10:01:15;5.93;;;1.80;;
14472;SDS011;7322;50.872;4.386;2022-10-16T10:03:43;5.97;;;2.13;;
14472;SDS011;7322;50.872;4.386;2022-10-16T10:06:16;5.57;;;1.60;;
14472;SDS011;7322;50.872;4.386;2022-10-16T10:08:54;5.03;;;1.80;;
14472;SDS011;7322;50.872;4.386;2022-10-16T10:11:38;4.83;;;1.57;;
14472;SDS011;7322;50.872;4.386;2022-10-16T10:14:11;5.27;;;2.10;;
14472;SDS011;7322;50.872;4.386;2022-10-16T10:16:44;5.03;;;1.60;;
14472;SDS011;7322;50.872;4.386;2022-10-16T10:19:13;8.57;;;2.13;;
14472;SDS011;7322;50.872;4.386;2022-10-16T10:21:42;6.43;;;1.90;;
14472;SDS011;7322;50.872;4.386;2022-10-16T10:24:11;3.10;;;1.60;;
14472;SDS011;7322;50.872;4.386;2022-10-16T10:26:40;4.13;;;1.80;;
14472;SDS011;7322;50.872;4.386;2022-10-16T10:29:15;5.27;;;1.50;;
14472;SDS011;7322;50.872;4.386;2022-10-16T10:31:50;3.67;;;1.47;;
14472;SDS011;7322;50.872;4.386;2022-10-16T10:34:26;5.07;;;1.40;;
14472;SDS011;7322;50.872;4.386;2022-10-16T10:37:08;4.97;;;1.40;;
14472;SDS011;7322;50.872;4.386;2022-10-16T10:39:52;6.00;;;1.73;;
14472;SDS011;7322;50.872;4.386;2022-10-16T10:42:25;4.60;;;1.67;;
14472;SDS011;7322;50.872;4.386;2022-10-16T10:45:08;3.67;;;1.60;;
14472;SDS011;7322;50.872;4.386;2022-10-16T10:47:47;4.90;;;1.50;;
14472;SDS011;7322;50.872;4.386;2022-10-16T10:50:24;3.30;;;1.70;;
14472;SDS011;7322;50.872;4.386;2022-10-16T10:52:59;6.53;;;1.80;;
14472;SDS011;7322;50.872;4.386;2022-10-16T10:55:39;4.53;;;1.93;;
14472;SDS011;7322;50.872;4.386;2022-10-16T10:58:18;4.20;;;2.03;;
14472;SDS011;7322;50.872;4.386;2022-10-16T11:01:06;6.30;;;1.50;;
14472;SDS011;7322;50.872;4.386;2022-10-16T11:06:33;4.00;;;1.77;;
14472;SDS011;7322;50.872;4.386;2022-10-16T11:09:07;5.23;;;1.60;;
14472;SDS011;7322;50.872;4.386;2022-10-16T11:11:38;5.50;;;1.90;;
14472;SDS011;7322;50.872;4.386;2022-10-16T11:14:11;4.87;;;1.47;;
14472;SDS011;7322;50.872;4.386;2022-10-16T11:16:45;5.83;;;1.53;;
14472;SDS011;7322;50.872;4.386;2022-10-16T11:19:20;9.00;;;2.10;;
14472;SDS011;7322;50.872;4.386;2022-10-16T11:22:01;5.20;;;2.20;;
14472;SDS011;7322;50.872;4.386;2022-10-16T11:24:41;4.90;;;1.70;;
14472;SDS011;7322;50.872;4.386;2022-10-16T11:27:15;4.50;;;1.77;;
14472;SDS011;7322;50.872;4.386;2022-10-16T11:29:48;5.17;;;1.60;;
14472;SDS011;7322;50.872;4.386;2022-10-16T11:32:24;4.30;;;1.60;;
14472;SDS011;7322;50.872;4.386;2022-10-16T11:34:57;4.87;;;1.90;;
14472;SDS011;7322;50.872;4.386;2022-10-16T11:37:36;3.43;;;1.60;;
14472;SDS011;7322;50.872;4.386;2022-10-16T11:40:14;5.63;;;1.80;;
14472;SDS011;7322;50.872;4.386;2022-10-16T11:42:46;3.93;;;1.70;;
14472;SDS011;7322;50.872;4.386;2022-10-16T11:45:23;5.73;;;1.80;;
14472;SDS011;7322;50.872;4.386;2022-10-16T11:48:00;6.93;;;2.00;;
14472;SDS011;7322;50.872;4.386;2022-10-16T11:50:35;10.53;;;1.57;;
14472;SDS011;7322;50.872;4.386;2022-10-16T11:53:11;5.13;;;1.77;;
14472;SDS011;7322;50.872;4.386;2022-10-16T11:55:44;2.17;;;1.37;;
14472;SDS011;7322;50.872;4.386;2022-10-16T11:58:30;6.10;;;1.50;;
14472;SDS011;7322;50.872;4.386;2022-10-16T12:01:14;4.10;;;1.60;;
14472;SDS011;7322;50.872;4.386;2022-10-16T12:07:08;3.53;;;1.50;;
14472;SDS011;7322;50.872;4.386;2022-10-16T12:09:43;4.63;;;1.40;;
14472;SDS011;7322;50.872;4.386;2022-10-16T12:15:18;2.57;;;1.23;;
14472;SDS011;7322;50.872;4.386;2022-10-16T12:17:48;3.73;;;1.30;;
14472;SDS011;7322;50.872;4.386;2022-10-16T12:22:54;6.13;;;1.40;;
14472;SDS011;7322;50.872;4.386;2022-10-16T12:25:26;3.77;;;1.20;;
14472;SDS011;7322;50.872;4.386;2022-10-16T12:27:59;5.83;;;1.40;;
14472;SDS011;7322;50.872;4.386;2022-10-16T12:30:28;6.20;;;1.57;;
14472;SDS011;7322;50.872;4.386;2022-10-16T12:32:57;1.60;;;1.00;;
14472;SDS011;7322;50.872;4.386;2022-10-16T12:35:28;3.10;;;1.50;;
14472;SDS011;7322;50.872;4.386;2022-10-16T12:38:12;3.17;;;1.40;;
14472;SDS011;7322;50.872;4.386;2022-10-16T12:40:44;4.57;;;1.30;;
14472;SDS011;7322;50.872;4.386;2022-10-16T12:43:24;3.30;;;1.13;;
14472;SDS011;7322;50.872;4.386;2022-10-16T12:46:00;3.77;;;1.47;;
14472;SDS011;7322;50.872;4.386;2022-10-16T12:48:31;2.33;;;1.37;;
14472;SDS011;7322;50.872;4.386;2022-10-16T12:51:09;5.57;;;1.20;;
14472;SDS011;7322;50.872;4.386;2022-10-16T12:53:40;3.80;;;1.30;;
14472;SDS011;7322;50.872;4.386;2022-10-16T12:56:09;2.20;;;1.17;;
14472;SDS011;7322;50.872;4.386;2022-10-16T13:01:25;3.43;;;1.00;;
14472;SDS011;7322;50.872;4.386;2022-10-16T13:07:15;2.10;;;0.70;;
14472;SDS011;7322;50.872;4.386;2022-10-16T13:10:00;2.73;;;1.00;;
14472;SDS011;7322;50.872;4.386;2022-10-16T13:12:46;3.43;;;1.30;;
14472;SDS011;7322;50.872;4.386;2022-10-16T13:15:41;3.10;;;1.10;;
14472;SDS011;7322;50.872;4.386;2022-10-16T13:18:27;2.93;;;1.40;;
14472;SDS011;7322;50.872;4.386;2022-10-16T13:21:06;2.27;;;1.17;;
14472;SDS011;7322;50.872;4.386;2022-10-16T13:23:41;2.70;;;1.20;;
14472;SDS011;7322;50.872;4.386;2022-10-16T13:26:21;2.63;;;1.20;;
14472;SDS011;7322;50.872;4.386;2022-10-16T13:28:58;3.47;;;1.13;;
14472;SDS011;7322;50.872;4.386;2022-10-16T13:31:26;5.13;;;1.20;;
14472;SDS011;7322;50.872;4.386;2022-10-16T13:33:57;3.53;;;1.20;;
14472;SDS011;7322;50.872;4.386;2022-10-16T13:36:27;2.83;;;1.20;;
14472;SDS011;7322;50.872;4.386;2022-10-16T13:38:59;3.00;;;1.20;;
14472;SDS011;7322;50.872;4.386;2022-10-16T13:41:35;3.70;;;1.20;;
14472;SDS011;7322;50.872;4.386;2022-10-16T13:44:02;7.47;;;1.43;;
14472;SDS011;7322;50.872;4.386;2022-10-16T13:46:35;3.57;;;1.10;;
14472;SDS011;7322;50.872;4.386;2022-10-16T13:49:03;5.20;;;1.50;;
14472;SDS011;7322;50.872;4.386;2022-10-16T13:51:37;4.37;;;1.27;;
14472;SDS011;7322;50.872;4.386;2022-10-16T13:54:15;3.50;;;1.37;;
14472;SDS011;7322;50.872;4.386;2022-10-16T13:56:53;3.53;;;1.50;;
14472;SDS011;7322;50.872;4.386;2022-10-16T13:59:24;6.17;;;1.50;;
14472;SDS011;7322;50.872;4.386;2022-10-16T14:01:58;4.07;;;1.37;;
14472;SDS011;7322;50.872;4.386;2022-10-16T14:07:25;5.10;;;1.57;;
14472;SDS011;7322;50.872;4.386;2022-10-16T14:09:54;4.50;;;1.33;;
14472;SDS011;7322;50.872;4.386;2022-10-16T14:12:32;4.17;;;1.30;;
14472;SDS011;7322;50.872;4.386;2022-10-16T14:15:00;2.10;;;1.30;;
14472;SDS011;7322;50.872;4.386;2022-10-16T14:17:28;2.83;;;1.20;;
14472;SDS011;7322;50.872;4.386;2022-10-16T14:19:57;6.43;;;1.50;;
14472;SDS011;7322;50.872;4.386;2022-10-16T14:22:28;3.67;;;1.63;;
14472;SDS011;7322;50.872;4.386;2022-10-16T14:25:00;3.40;;;1.53;;
14472;SDS011;7322;50.872;4.386;2022-10-16T14:27:35;2.83;;;1.40;;
14472;SDS011;7322;50.872;4.386;2022-10-16T14:30:08;6.40;;;1.60;;
14472;SDS011;7322;50.872;4.386;2022-10-16T14:32:53;4.30;;;1.70;;
14472;SDS011;7322;50.872;4.386;2022-10-16T14:35:26;3.70;;;1.27;;
14472;SDS011;7322;50.872;4.386;2022-10-16T14:37:56;3.17;;;1.30;;
14472;SDS011;7322;50.872;4.386;2022-10-16T14:40:25;2.97;;;1.10;;
14472;SDS011;7322;50.872;4.386;2022-10-16T14:42:55;4.60;;;1.60;;
14472;SDS011;7322;50.872;4.386;2022-10-16T14:45:23;4.63;;;1.43;;
14472;SDS011;7322;50.872;4.386;2022-10-16T14:47:54;5.23;;;1.87;;
14472;SDS011;7322;50.872;4.386;2022-10-16T14:50:23;5.20;;;1.80;;
14472;SDS011;7322;50.872;4.386;2022-10-16T14:52:52;4.63;;;1.83;;
14472;SDS011;7322;50.872;4.386;2022-10-16T14:55:21;4.03;;;2.00;;
14472;SDS011;7322;50.872;4.386;2022-10-16T14:57:49;3.83;;;1.40;;
14472;SDS011;7322;50.872;4.386;2022-10-16T15:00:19;3.07;;;1.53;;
14472;SDS011;7322;50.872;4.386;2022-10-16T15:02:48;5.20;;;1.73;;
14472;SDS011;7322;50.872;4.386;2022-10-16T15:05:16;5.33;;;1.83;;
14472;SDS011;7322;50.872;4.386;2022-10-16T15:07:46;5.30;;;1.77;;
14472;SDS011;7322;50.872;4.386;2022-10-16T15:10:15;5.97;;;1.70;;
14472;SDS011;7322;50.872;4.386;2022-10-16T15:12:43;6.17;;;1.90;;
14472;SDS011;7322;50.872;4.386;2022-10-16T15:15:23;4.77;;;1.80;;
14472;SDS011;7322;50.872;4.386;2022-10-16T15:17:59;5.63;;;1.80;;
14472;SDS011;7322;50.872;4.386;2022-10-16T15:20:28;4.27;;;2.20;;
14472;SDS011;7322;50.872;4.386;2022-10-16T15:22:58;7.23;;;3.13;;
14472;SDS011;7322;50.872;4.386;2022-10-16T15:25:27;6.33;;;2.03;;
14472;SDS011;7322;50.872;4.386;2022-10-16T15:27:58;2.83;;;1.67;;
14472;SDS011;7322;50.872;4.386;2022-10-16T15:30:27;5.70;;;2.50;;
14472;SDS011;7322;50.872;4.386;2022-10-16T15:32:54;26.13;;;2.50;;
14472;SDS011;7322;50.872;4.386;2022-10-16T15:35:21;6.73;;;2.20;;
14472;SDS011;7322;50.872;4.386;2022-10-16T15:37:48;5.50;;;2.60;;
14472;SDS011;7322;50.872;4.386;2022-10-16T15:40:16;5.83;;;2.50;;
14472;SDS011;7322;50.872;4.386;2022-10-16T15:42:43;4.87;;;2.33;;
14472;SDS011;7322;50.872;4.386;2022-10-16T15:45:11;3.60;;;2.20;;
14472;SDS011;7322;50.872;4.386;2022-10-16T15:47:40;6.73;;;2.80;;
14472;SDS011;7322;50.872;4.386;2022-10-16T15:50:09;7.87;;;2.97;;
14472;SDS011;7322;50.872;4.386;2022-10-16T15:52:39;6.50;;;3.10;;